Terminal Aerodrome Forecast
Issued by NWS

Home | Current Version | Previous Version | Text Only | Print | Product List | Glossary On
Versions: 1 2 3 4 5 6 7 8 9 10 11 12 13 14 15 16 17 18 19 20 21 22 23 24 25 26 27 28 29 30
335
FTUS43 KSGF 060858 AAC
TAFBBG
TAF AMD
KBBG 060858Z 0609/0706 31004KT 4SM BR BKN010
      TEMPO 0609/0611 OVC005
     FM061400 32010KT P6SM BKN025
     FM061700 33009KT P6SM SCT060
     FM062100 33008KT P6SM BKN200
     FM070100 34004KT P6SM BKN200=

USA.gov is the U.S. government's official web portal to all federal, state and local government web resources and services.